createdAt,value
2022-10-08T00:01:29.643Z,16.70
2022-10-08T00:05:33.205Z,16.80
2022-10-08T00:09:34.954Z,17.10
2022-10-08T00:13:42.410Z,16.50
2022-10-08T00:17:44.102Z,16.60
2022-10-08T00:21:56.984Z,16.80
2022-10-08T00:26:03.276Z,16.60
2022-10-08T00:30:06.013Z,16.60
2022-10-08T00:34:10.607Z,16.30
2022-10-08T00:38:12.370Z,16.40
2022-10-08T00:42:14.166Z,16.20
2022-10-08T00:46:23.087Z,16.10
2022-10-08T00:55:53.698Z,16.00
2022-10-08T00:59:57.186Z,16.20
2022-10-08T01:04:04.387Z,16.30
2022-10-08T01:08:28.282Z,16.40
2022-10-08T01:12:52.192Z,16.40
2022-10-08T01:17:07.852Z,16.20
2022-10-08T01:21:27.465Z,16.20
2022-10-08T01:26:08.574Z,16.40
2022-10-08T01:30:16.271Z,15.20
2022-10-08T01:34:49.214Z,15.60
2022-10-08T01:38:59.765Z,15.90
2022-10-08T01:43:06.046Z,15.80
2022-10-08T01:47:23.401Z,15.80
2022-10-08T01:51:36.992Z,15.90
2022-10-08T01:55:47.835Z,16.20
2022-10-08T01:59:54.840Z,16.50
2022-10-08T02:04:15.077Z,16.10
2022-10-08T02:08:17.020Z,16.00
2022-10-08T02:12:21.363Z,15.80
2022-10-08T02:16:29.858Z,15.80
2022-10-08T02:20:37.162Z,15.50
2022-10-08T02:24:44.970Z,15.60
2022-10-08T02:29:01.299Z,16.00
2022-10-08T02:33:17.320Z,15.90
2022-10-08T02:37:34.435Z,15.90
2022-10-08T02:41:41.113Z,16.00
2022-10-08T02:45:47.500Z,15.20
2022-10-08T02:50:11.672Z,15.00
2022-10-08T02:54:14.076Z,15.30
2022-10-08T02:58:17.202Z,15.50
2022-10-08T03:02:36.687Z,15.80
2022-10-08T03:06:41.752Z,15.10
2022-10-08T03:10:44.256Z,15.50
2022-10-08T03:14:49.395Z,15.50
2022-10-08T03:18:52.286Z,15.50
2022-10-08T03:23:00.827Z,16.00
2022-10-08T03:27:02.830Z,15.80
2022-10-08T03:31:06.823Z,15.70
2022-10-08T03:35:08.670Z,15.60
2022-10-08T03:39:11.541Z,15.50
2022-10-08T03:43:13.314Z,15.60
2022-10-08T03:47:29.884Z,15.80
2022-10-08T03:51:31.564Z,15.70
2022-10-08T03:55:35.629Z,15.80
2022-10-08T03:59:37.270Z,15.60
2022-10-08T04:03:39.480Z,15.90
2022-10-08T04:07:41.154Z,15.80
2022-10-08T04:11:42.826Z,15.50
2022-10-08T04:15:47.249Z,15.60
2022-10-08T04:19:48.988Z,15.50
2022-10-08T04:23:50.828Z,15.30
2022-10-08T04:27:52.649Z,15.40
2022-10-08T04:31:54.309Z,15.60
2022-10-08T04:36:00.130Z,15.50
2022-10-08T04:40:02.285Z,15.50
2022-10-08T04:44:04.065Z,15.90
2022-10-08T04:48:05.707Z,15.70
2022-10-08T04:52:07.508Z,15.80
2022-10-08T04:56:21.002Z,15.80
2022-10-08T05:00:23.161Z,15.70
2022-10-08T05:04:24.885Z,15.90
2022-10-08T05:08:28.217Z,15.50
2022-10-08T05:12:29.839Z,15.50
2022-10-08T05:16:31.656Z,15.50
2022-10-08T05:20:36.228Z,15.60
2022-10-08T05:24:37.924Z,15.60
2022-10-08T05:28:40.005Z,15.60
2022-10-08T05:32:41.701Z,15.60
2022-10-08T05:36:43.495Z,15.80
2022-10-08T05:40:45.313Z,15.40
2022-10-08T05:44:46.989Z,15.40
2022-10-08T05:48:52.245Z,14.90
2022-10-08T05:52:54.011Z,14.50
2022-10-08T05:56:55.673Z,14.80
2022-10-08T06:01:02.030Z,15.30
2022-10-08T06:05:04.035Z,14.80
2022-10-08T06:09:07.634Z,15.20
2022-10-08T06:13:09.287Z,15.60
2022-10-08T06:17:10.959Z,15.60
2022-10-08T06:21:15.072Z,15.70
2022-10-08T06:25:16.752Z,15.80
2022-10-08T06:29:19.126Z,16.20
2022-10-08T06:33:21.078Z,16.30
2022-10-08T06:37:22.729Z,16.10
2022-10-08T06:41:25.292Z,16.10
2022-10-08T06:45:26.972Z,16.30
2022-10-08T06:49:28.724Z,15.90
2022-10-08T06:53:31.140Z,16.40
2022-10-08T06:57:32.755Z,16.40
2022-10-08T07:01:35.404Z,16.20
2022-10-08T07:05:39.307Z,16.20
2022-10-08T07:09:40.956Z,15.70
2022-10-08T07:13:43.889Z,15.50
2022-10-08T07:17:45.499Z,15.20
2022-10-08T07:21:47.125Z,15.80
2022-10-08T07:26:00.633Z,15.90
2022-10-08T07:30:02.397Z,16.20
2022-10-08T07:34:07.665Z,15.70
2022-10-08T07:38:09.377Z,15.90
2022-10-08T07:42:11.003Z,16.40
2022-10-08T07:46:12.751Z,16.70
2022-10-08T07:50:16.964Z,16.70
2022-10-08T07:54:20.060Z,16.70
2022-10-08T07:58:21.648Z,16.50
2022-10-08T08:02:23.429Z,16.90
2022-10-08T08:06:26.134Z,17.20
2022-10-08T08:10:27.880Z,17.80
2022-10-08T08:14:29.508Z,17.60
2022-10-08T08:18:33.377Z,17.60
2022-10-08T08:22:35.041Z,17.50
2022-10-08T08:26:38.894Z,17.70
2022-10-08T08:30:40.713Z,18.20
2022-10-08T08:34:42.409Z,18.30
2022-10-08T08:38:44.764Z,18.00
2022-10-08T08:42:56.340Z,17.70
2022-10-08T08:47:04.257Z,17.20
2022-10-08T08:51:06.044Z,16.80
2022-10-08T08:55:16.972Z,17.20
2022-10-08T08:59:36.557Z,17.20
2022-10-08T09:03:47.618Z,17.30
2022-10-08T09:08:06.356Z,18.40
2022-10-08T09:12:20.557Z,18.20
2022-10-08T09:16:22.763Z,17.70
2022-10-08T09:20:25.749Z,18.20
2022-10-08T09:24:29.705Z,18.50
2022-10-08T09:28:40.495Z,18.40
2022-10-08T09:32:42.235Z,18.50
2022-10-08T09:36:48.177Z,17.90
2022-10-08T09:41:00.396Z,18.20
2022-10-08T09:45:03.814Z,18.30
2022-10-08T09:49:30.963Z,18.40
2022-10-08T09:53:48.897Z,18.40
2022-10-08T09:57:54.721Z,17.90
2022-10-08T10:01:57.702Z,18.20
2022-10-08T10:05:59.880Z,18.60
2022-10-08T10:10:03.368Z,18.80
2022-10-08T10:14:36.155Z,18.20
2022-10-08T10:18:59.915Z,18.40
2022-10-08T10:23:21.027Z,18.70
2022-10-08T10:27:37.010Z,19.10
2022-10-08T10:31:45.236Z,19.20
2022-10-08T10:36:00.393Z,19.50
2022-10-08T10:40:25.260Z,18.80
2022-10-08T10:44:35.097Z,19.50
2022-10-08T10:48:36.831Z,19.40
2022-10-08T10:53:03.475Z,19.30
2022-10-08T10:57:22.917Z,19.40
2022-10-08T11:01:48.742Z,19.30
2022-10-08T11:05:58.567Z,18.90
2022-10-08T11:10:34.641Z,18.50
2022-10-08T11:15:14.090Z,18.90
2022-10-08T11:19:20.400Z,18.80
2022-10-08T11:23:57.014Z,18.70
2022-10-08T11:28:06.091Z,17.10
2022-10-08T11:32:15.056Z,16.70
2022-10-08T11:36:54.859Z,18.10
2022-10-08T11:41:06.341Z,18.30
2022-10-08T11:45:23.030Z,19.00
2022-10-08T11:49:25.669Z,18.50
2022-10-08T11:53:27.556Z,18.30
2022-10-08T11:58:03.015Z,18.70
2022-10-08T12:02:03.086Z,17.80
2022-10-08T12:06:26.690Z,18.30
2022-10-08T12:10:37.537Z,18.10
2022-10-08T12:14:46.517Z,17.60
2022-10-08T12:18:48.221Z,18.10
2022-10-08T12:23:29.977Z,18.60
2022-10-08T12:27:38.010Z,18.20
2022-10-08T12:31:42.669Z,17.10
2022-10-08T12:36:00.902Z,18.50
2022-10-08T12:40:16.064Z,18.90
2022-10-08T12:44:46.381Z,19.20
2022-10-08T12:49:01.554Z,18.80
2022-10-08T12:53:07.322Z,18.10
2022-10-08T12:57:13.601Z,18.10
2022-10-08T13:01:17.662Z,17.90
2022-10-08T13:05:33.511Z,17.90
2022-10-08T13:09:36.337Z,18.40
2022-10-08T13:13:50.546Z,19.10
2022-10-08T13:17:53.557Z,19.00
2022-10-08T13:22:07.334Z,18.60
2022-10-08T13:26:38.132Z,18.80
2022-10-08T13:30:40.656Z,18.60
2022-10-08T13:34:45.636Z,18.80
2022-10-08T13:38:47.308Z,17.00
2022-10-08T13:42:55.302Z,17.60
2022-10-08T13:47:00.159Z,18.00
2022-10-08T13:51:05.084Z,18.80
2022-10-08T13:55:16.072Z,17.50
2022-10-08T13:59:18.737Z,18.20
2022-10-08T14:03:20.489Z,18.00
2022-10-08T14:07:27.577Z,17.80
2022-10-08T14:11:31.065Z,17.60
2022-10-08T14:15:32.968Z,18.20
2022-10-08T14:19:34.646Z,17.40
2022-10-08T14:23:36.522Z,18.50
2022-10-08T14:27:38.259Z,18.10
2022-10-08T14:31:39.922Z,18.50
2022-10-08T14:35:41.692Z,18.50
2022-10-08T14:39:43.384Z,17.90
2022-10-08T14:43:45.082Z,17.30
2022-10-08T14:47:46.761Z,18.00
2022-10-08T14:51:48.658Z,18.10
2022-10-08T14:56:11.649Z,17.90
2022-10-08T15:00:14.343Z,17.10
2022-10-08T15:04:16.956Z,17.60
2022-10-08T15:08:19.585Z,17.20
2022-10-08T15:12:21.338Z,18.10
2022-10-08T15:16:25.715Z,17.80
2022-10-08T15:20:27.683Z,18.00
2022-10-08T15:24:29.513Z,18.50
2022-10-08T15:28:32.570Z,18.60
2022-10-08T15:32:34.613Z,18.80
2022-10-08T15:36:37.815Z,18.40
2022-10-08T15:40:39.979Z,18.40
2022-10-08T15:44:44.135Z,18.60
2022-10-08T15:48:55.058Z,18.90
2022-10-08T15:52:56.816Z,18.70
2022-10-08T15:56:58.570Z,19.30
2022-10-08T16:01:10.874Z,19.50
2022-10-08T16:05:14.069Z,19.70
2022-10-08T16:09:17.572Z,19.70
2022-10-08T16:13:19.242Z,19.80
2022-10-08T16:17:20.962Z,20.00
2022-10-08T16:21:22.734Z,20.00
2022-10-08T16:25:24.385Z,20.00
2022-10-08T16:29:26.293Z,19.90
2022-10-08T16:33:28.559Z,19.80
2022-10-08T16:37:30.204Z,19.70
2022-10-08T16:41:34.187Z,19.60
2022-10-08T16:45:40.416Z,19.50
2022-10-08T16:49:43.569Z,19.30
2022-10-08T16:53:53.468Z,19.30
2022-10-08T16:57:55.684Z,19.10
2022-10-08T17:01:59.172Z,19.00
2022-10-08T17:06:01.708Z,18.90
2022-10-08T17:10:03.552Z,18.80
2022-10-08T17:14:07.673Z,18.40
2022-10-08T17:18:09.417Z,18.20
2022-10-08T17:22:13.079Z,17.80
2022-10-08T17:26:19.977Z,17.80
2022-10-08T17:30:21.777Z,17.00
2022-10-08T17:34:23.788Z,17.30
2022-10-08T17:38:25.828Z,17.40
2022-10-08T17:42:27.656Z,17.30
2022-10-08T17:46:38.537Z,17.30
2022-10-08T17:50:42.887Z,16.70
2022-10-08T17:54:44.623Z,16.80
2022-10-08T17:58:46.409Z,16.80
2022-10-08T18:02:48.386Z,17.00
2022-10-08T18:06:50.248Z,16.90
2022-10-08T18:10:51.966Z,17.20
2022-10-08T18:14:53.730Z,17.00
2022-10-08T18:18:56.636Z,16.80
2022-10-08T18:22:58.306Z,16.70
2022-10-08T18:27:00.102Z,16.10
2022-10-08T18:31:08.285Z,16.10
2022-10-08T18:35:11.576Z,15.50
2022-10-08T18:39:16.887Z,15.50
2022-10-08T18:43:18.663Z,15.80
2022-10-08T18:47:20.440Z,15.70
2022-10-08T18:51:24.678Z,15.90
2022-10-08T18:55:26.342Z,16.10
2022-10-08T18:59:28.197Z,16.00
2022-10-08T19:03:29.904Z,15.50
2022-10-08T19:07:31.570Z,15.30
2022-10-08T19:11:44.192Z,14.90
2022-10-08T19:15:46.566Z,15.00
2022-10-08T19:19:48.744Z,15.30
2022-10-08T19:23:50.904Z,15.50
2022-10-08T19:27:53.007Z,15.10
2022-10-08T19:31:55.461Z,15.10
2022-10-08T19:36:01.145Z,15.50
2022-10-08T19:40:03.844Z,15.40
2022-10-08T19:44:06.161Z,15.20
2022-10-08T19:48:09.303Z,14.70
2022-10-08T19:52:13.460Z,14.60
2022-10-08T19:56:16.373Z,15.10
2022-10-08T20:00:18.120Z,14.90
2022-10-08T20:04:21.587Z,14.70
2022-10-08T20:08:23.450Z,14.50
2022-10-08T20:12:25.101Z,14.20
2022-10-08T20:16:30.049Z,14.50
2022-10-08T20:20:33.731Z,14.30
2022-10-08T20:24:35.553Z,14.00
2022-10-08T20:28:37.652Z,14.40
2022-10-08T20:32:39.369Z,14.40
2022-10-08T20:36:41.238Z,14.40
2022-10-08T20:40:42.895Z,14.20
2022-10-08T20:44:44.590Z,14.30
2022-10-08T20:48:46.820Z,14.50
2022-10-08T20:52:49.447Z,14.50
2022-10-08T20:56:51.427Z,14.10
2022-10-08T21:00:53.094Z,14.10
2022-10-08T21:04:54.787Z,14.30
2022-10-08T21:08:58.441Z,13.70
2022-10-08T21:13:00.098Z,13.90
2022-10-08T21:17:01.798Z,14.10
2022-10-08T21:21:05.492Z,14.00
2022-10-08T21:25:07.618Z,13.80
2022-10-08T21:29:11.589Z,13.50
2022-10-08T21:33:13.254Z,13.80
2022-10-08T21:37:14.914Z,12.60
2022-10-08T21:41:19.609Z,12.60
2022-10-08T21:45:21.262Z,13.50
2022-10-08T21:49:24.006Z,13.30
2022-10-08T21:53:27.203Z,14.10
2022-10-08T21:57:28.865Z,13.70
2022-10-08T22:01:32.202Z,14.10
2022-10-08T22:05:33.891Z,13.20
2022-10-08T22:09:36.179Z,13.50
2022-10-08T22:13:37.863Z,13.40
2022-10-08T22:17:39.569Z,13.90
2022-10-08T22:21:41.614Z,13.80
2022-10-08T22:25:43.395Z,14.40
2022-10-08T22:29:45.080Z,13.10
2022-10-08T22:33:47.854Z,13.90
2022-10-08T22:37:49.494Z,14.00
2022-10-08T22:41:51.131Z,14.10
2022-10-08T22:45:52.871Z,13.90
2022-10-08T22:49:54.575Z,13.90
2022-10-08T22:53:56.753Z,14.10
2022-10-08T22:57:58.420Z,14.10
2022-10-08T23:02:00.144Z,13.50
2022-10-08T23:06:06.186Z,13.50
2022-10-08T23:10:08.198Z,13.10
2022-10-08T23:14:10.039Z,13.40
2022-10-08T23:18:11.714Z,13.40
2022-10-08T23:22:13.428Z,13.60
2022-10-08T23:26:16.409Z,13.10
2022-10-08T23:30:41.742Z,13.40
2022-10-08T23:34:39.686Z,13.40
2022-10-08T23:38:41.420Z,12.80
2022-10-08T23:42:43.086Z,12.50
2022-10-08T23:46:44.809Z,12.40
2022-10-08T23:50:50.131Z,12.90
2022-10-08T23:54:51.785Z,13.10
2022-10-08T23:58:53.479Z,12.80
